sensor_id;sensor_type;location;lat;lon;timestamp;P1;durP1;ratioP1;P2;durP2;ratioP2
44197;SDS011;30157;55.512;37.764;2022-12-29T00:01:32;7.40;;;2.00;;
44197;SDS011;30157;55.512;37.764;2022-12-29T00:03:58;5.22;;;1.98;;
44197;SDS011;30157;55.512;37.764;2022-12-29T00:06:24;3.95;;;1.70;;
44197;SDS011;30157;55.512;37.764;2022-12-29T00:08:50;4.50;;;1.65;;
44197;SDS011;30157;55.512;37.764;2022-12-29T00:11:20;4.68;;;1.70;;
44197;SDS011;30157;55.512;37.764;2022-12-29T00:13:47;3.40;;;1.70;;
44197;SDS011;30157;55.512;37.764;2022-12-29T00:16:31;5.47;;;1.67;;
44197;SDS011;30157;55.512;37.764;2022-12-29T00:18:58;4.55;;;1.77;;
44197;SDS011;30157;55.512;37.764;2022-12-29T00:21:24;4.85;;;1.83;;
44197;SDS011;30157;55.512;37.764;2022-12-29T00:24:12;4.87;;;1.30;;
44197;SDS011;30157;55.512;37.764;2022-12-29T00:29:47;5.50;;;1.60;;
44197;SDS011;30157;55.512;37.764;2022-12-29T00:32:33;3.65;;;1.40;;
44197;SDS011;30157;55.512;37.764;2022-12-29T00:35:23;5.20;;;1.73;;
44197;SDS011;30157;55.512;37.764;2022-12-29T00:37:53;4.35;;;2.13;;
44197;SDS011;30157;55.512;37.764;2022-12-29T00:40:40;4.85;;;1.90;;
44197;SDS011;30157;55.512;37.764;2022-12-29T00:43:24;3.70;;;1.40;;
44197;SDS011;30157;55.512;37.764;2022-12-29T00:46:09;4.25;;;2.05;;
44197;SDS011;30157;55.512;37.764;2022-12-29T00:48:34;5.40;;;1.70;;
44197;SDS011;30157;55.512;37.764;2022-12-29T00:51:19;3.10;;;1.70;;
44197;SDS011;30157;55.512;37.764;2022-12-29T00:53:44;2.58;;;1.50;;
44197;SDS011;30157;55.512;37.764;2022-12-29T00:56:10;5.70;;;1.73;;
44197;SDS011;30157;55.512;37.764;2022-12-29T00:58:36;4.30;;;2.10;;
44197;SDS011;30157;55.512;37.764;2022-12-29T01:01:05;8.82;;;2.08;;
44197;SDS011;30157;55.512;37.764;2022-12-29T01:03:33;5.22;;;1.95;;
44197;SDS011;30157;55.512;37.764;2022-12-29T01:06:00;7.05;;;2.85;;
44197;SDS011;30157;55.512;37.764;2022-12-29T01:08:27;8.43;;;2.60;;
44197;SDS011;30157;55.512;37.764;2022-12-29T01:11:00;4.97;;;1.42;;
44197;SDS011;30157;55.512;37.764;2022-12-29T01:13:31;3.80;;;1.67;;
44197;SDS011;30157;55.512;37.764;2022-12-29T01:15:57;4.28;;;1.73;;
44197;SDS011;30157;55.512;37.764;2022-12-29T01:18:23;9.07;;;2.30;;
44197;SDS011;30157;55.512;37.764;2022-12-29T01:20:50;4.70;;;1.73;;
44197;SDS011;30157;55.512;37.764;2022-12-29T01:23:16;4.88;;;1.80;;
44197;SDS011;30157;55.512;37.764;2022-12-29T01:25:44;7.25;;;1.92;;
44197;SDS011;30157;55.512;37.764;2022-12-29T01:28:09;5.38;;;1.70;;
44197;SDS011;30157;55.512;37.764;2022-12-29T01:30:37;6.70;;;1.63;;
44197;SDS011;30157;55.512;37.764;2022-12-29T01:33:02;6.32;;;1.88;;
44197;SDS011;30157;55.512;37.764;2022-12-29T01:35:28;2.65;;;1.17;;
44197;SDS011;30157;55.512;37.764;2022-12-29T01:37:56;3.53;;;1.35;;
44197;SDS011;30157;55.512;37.764;2022-12-29T01:40:22;3.35;;;1.42;;
44197;SDS011;30157;55.512;37.764;2022-12-29T01:42:48;3.28;;;1.48;;
44197;SDS011;30157;55.512;37.764;2022-12-29T01:45:16;4.53;;;1.30;;
44197;SDS011;30157;55.512;37.764;2022-12-29T01:47:54;3.25;;;1.50;;
44197;SDS011;30157;55.512;37.764;2022-12-29T01:50:25;2.97;;;1.20;;
44197;SDS011;30157;55.512;37.764;2022-12-29T01:52:58;4.78;;;1.23;;
44197;SDS011;30157;55.512;37.764;2022-12-29T01:55:28;6.85;;;1.75;;
44197;SDS011;30157;55.512;37.764;2022-12-29T01:57:56;6.20;;;1.50;;
44197;SDS011;30157;55.512;37.764;2022-12-29T02:00:26;4.18;;;1.10;;
44197;SDS011;30157;55.512;37.764;2022-12-29T02:02:52;4.25;;;1.20;;
44197;SDS011;30157;55.512;37.764;2022-12-29T02:07:52;6.38;;;1.35;;
44197;SDS011;30157;55.512;37.764;2022-12-29T02:10:21;3.97;;;1.27;;
44197;SDS011;30157;55.512;37.764;2022-12-29T02:12:50;3.83;;;1.13;;
44197;SDS011;30157;55.512;37.764;2022-12-29T02:15:17;3.97;;;1.55;;
44197;SDS011;30157;55.512;37.764;2022-12-29T02:30:04;5.45;;;1.33;;
44197;SDS011;30157;55.512;37.764;2022-12-29T02:33:01;4.82;;;1.30;;
44197;SDS011;30157;55.512;37.764;2022-12-29T02:35:31;5.35;;;1.23;;
44197;SDS011;30157;55.512;37.764;2022-12-29T02:41:24;4.35;;;1.33;;
44197;SDS011;30157;55.512;37.764;2022-12-29T02:44:01;7.80;;;1.60;;
44197;SDS011;30157;55.512;37.764;2022-12-29T02:46:36;4.43;;;1.35;;
44197;SDS011;30157;55.512;37.764;2022-12-29T02:49:20;3.75;;;1.15;;
44197;SDS011;30157;55.512;37.764;2022-12-29T02:52:04;4.25;;;1.40;;
44197;SDS011;30157;55.512;37.764;2022-12-29T02:54:34;4.30;;;1.33;;
44197;SDS011;30157;55.512;37.764;2022-12-29T02:57:12;6.78;;;1.50;;
44197;SDS011;30157;55.512;37.764;2022-12-29T02:59:41;2.40;;;1.23;;
44197;SDS011;30157;55.512;37.764;2022-12-29T03:16:45;9.00;;;2.08;;
44197;SDS011;30157;55.512;37.764;2022-12-29T03:22:08;4.55;;;1.77;;
44197;SDS011;30157;55.512;37.764;2022-12-29T03:27:55;4.90;;;1.60;;
44197;SDS011;30157;55.512;37.764;2022-12-29T03:30:32;5.20;;;1.58;;
44197;SDS011;30157;55.512;37.764;2022-12-29T03:33:02;4.95;;;1.70;;
44197;SDS011;30157;55.512;37.764;2022-12-29T03:35:33;4.22;;;1.60;;
44197;SDS011;30157;55.512;37.764;2022-12-29T03:41:18;2.75;;;1.40;;
44197;SDS011;30157;55.512;37.764;2022-12-29T03:43:49;5.47;;;1.75;;
44197;SDS011;30157;55.512;37.764;2022-12-29T03:46:14;5.20;;;1.42;;
44197;SDS011;30157;55.512;37.764;2022-12-29T03:48:41;3.55;;;1.77;;
44197;SDS011;30157;55.512;37.764;2022-12-29T03:51:09;4.57;;;2.42;;
44197;SDS011;30157;55.512;37.764;2022-12-29T03:53:35;5.47;;;1.80;;
44197;SDS011;30157;55.512;37.764;2022-12-29T03:56:02;4.30;;;1.48;;
44197;SDS011;30157;55.512;37.764;2022-12-29T03:58:28;4.30;;;1.67;;
44197;SDS011;30157;55.512;37.764;2022-12-29T04:01:00;4.68;;;1.90;;
44197;SDS011;30157;55.512;37.764;2022-12-29T04:03:26;6.15;;;1.55;;
44197;SDS011;30157;55.512;37.764;2022-12-29T04:05:51;6.50;;;2.00;;
44197;SDS011;30157;55.512;37.764;2022-12-29T04:08:17;5.90;;;2.30;;
44197;SDS011;30157;55.512;37.764;2022-12-29T04:10:43;5.47;;;1.83;;
44197;SDS011;30157;55.512;37.764;2022-12-29T04:13:08;5.50;;;1.83;;
44197;SDS011;30157;55.512;37.764;2022-12-29T04:15:34;7.18;;;2.30;;
44197;SDS011;30157;55.512;37.764;2022-12-29T04:18:01;4.70;;;1.92;;
44197;SDS011;30157;55.512;37.764;2022-12-29T04:20:27;6.93;;;2.17;;
44197;SDS011;30157;55.512;37.764;2022-12-29T04:23:12;5.47;;;2.00;;
44197;SDS011;30157;55.512;37.764;2022-12-29T04:25:37;5.88;;;2.22;;
44197;SDS011;30157;55.512;37.764;2022-12-29T04:28:05;6.03;;;2.20;;
44197;SDS011;30157;55.512;37.764;2022-12-29T04:30:51;7.80;;;2.60;;
44197;SDS011;30157;55.512;37.764;2022-12-29T04:33:38;7.72;;;2.58;;
44197;SDS011;30157;55.512;37.764;2022-12-29T04:36:05;6.63;;;2.33;;
44197;SDS011;30157;55.512;37.764;2022-12-29T04:38:31;8.02;;;3.13;;
44197;SDS011;30157;55.512;37.764;2022-12-29T04:40:59;10.63;;;2.95;;
44197;SDS011;30157;55.512;37.764;2022-12-29T04:43:27;6.60;;;2.35;;
44197;SDS011;30157;55.512;37.764;2022-12-29T04:46:19;7.53;;;3.13;;
44197;SDS011;30157;55.512;37.764;2022-12-29T04:48:52;11.90;;;3.20;;
44197;SDS011;30157;55.512;37.764;2022-12-29T04:51:36;9.40;;;3.10;;
44197;SDS011;30157;55.512;37.764;2022-12-29T04:54:01;5.38;;;2.28;;
44197;SDS011;30157;55.512;37.764;2022-12-29T04:56:30;6.57;;;2.60;;
44197;SDS011;30157;55.512;37.764;2022-12-29T04:58:56;8.27;;;2.42;;
44197;SDS011;30157;55.512;37.764;2022-12-29T05:01:22;5.95;;;3.60;;
44197;SDS011;30157;55.512;37.764;2022-12-29T05:03:49;8.93;;;3.25;;
44197;SDS011;30157;55.512;37.764;2022-12-29T05:06:16;7.20;;;4.03;;
44197;SDS011;30157;55.512;37.764;2022-12-29T05:08:42;10.57;;;3.60;;
44197;SDS011;30157;55.512;37.764;2022-12-29T05:11:08;8.23;;;3.10;;
44197;SDS011;30157;55.512;37.764;2022-12-29T05:13:33;12.77;;;3.88;;
44197;SDS011;30157;55.512;37.764;2022-12-29T05:15:59;8.73;;;3.67;;
44197;SDS011;30157;55.512;37.764;2022-12-29T05:18:27;5.82;;;3.38;;
44197;SDS011;30157;55.512;37.764;2022-12-29T05:20:53;7.38;;;3.42;;
44197;SDS011;30157;55.512;37.764;2022-12-29T05:23:22;6.32;;;3.20;;
44197;SDS011;30157;55.512;37.764;2022-12-29T05:25:54;8.55;;;3.20;;
44197;SDS011;30157;55.512;37.764;2022-12-29T05:28:27;7.43;;;4.03;;
44197;SDS011;30157;55.512;37.764;2022-12-29T05:31:02;8.38;;;4.18;;
44197;SDS011;30157;55.512;37.764;2022-12-29T05:33:29;8.90;;;3.88;;
44197;SDS011;30157;55.512;37.764;2022-12-29T05:35:54;8.30;;;3.50;;
44197;SDS011;30157;55.512;37.764;2022-12-29T05:38:22;9.90;;;3.92;;
44197;SDS011;30157;55.512;37.764;2022-12-29T05:40:48;8.98;;;3.47;;
44197;SDS011;30157;55.512;37.764;2022-12-29T05:43:52;9.20;;;3.80;;
44197;SDS011;30157;55.512;37.764;2022-12-29T05:46:47;6.70;;;4.00;;
44197;SDS011;30157;55.512;37.764;2022-12-29T05:49:19;7.57;;;4.10;;
44197;SDS011;30157;55.512;37.764;2022-12-29T05:51:54;5.07;;;3.30;;
44197;SDS011;30157;55.512;37.764;2022-12-29T05:54:20;6.22;;;3.33;;
44197;SDS011;30157;55.512;37.764;2022-12-29T05:56:46;6.70;;;3.80;;
44197;SDS011;30157;55.512;37.764;2022-12-29T05:59:12;9.93;;;4.82;;
44197;SDS011;30157;55.512;37.764;2022-12-29T06:01:38;6.78;;;3.55;;
44197;SDS011;30157;55.512;37.764;2022-12-29T06:04:04;7.85;;;4.20;;
44197;SDS011;30157;55.512;37.764;2022-12-29T06:06:30;7.15;;;3.42;;
44197;SDS011;30157;55.512;37.764;2022-12-29T06:08:56;6.68;;;3.50;;
44197;SDS011;30157;55.512;37.764;2022-12-29T06:11:22;8.60;;;3.70;;
44197;SDS011;30157;55.512;37.764;2022-12-29T06:13:52;6.40;;;3.50;;
44197;SDS011;30157;55.512;37.764;2022-12-29T06:16:18;9.75;;;3.70;;
44197;SDS011;30157;55.512;37.764;2022-12-29T06:18:45;10.25;;;3.88;;
44197;SDS011;30157;55.512;37.764;2022-12-29T06:21:11;7.28;;;3.70;;
44197;SDS011;30157;55.512;37.764;2022-12-29T06:23:37;6.50;;;3.53;;
44197;SDS011;30157;55.512;37.764;2022-12-29T06:26:03;7.15;;;4.00;;
44197;SDS011;30157;55.512;37.764;2022-12-29T06:28:29;7.70;;;3.80;;
44197;SDS011;30157;55.512;37.764;2022-12-29T06:30:55;6.30;;;3.42;;
44197;SDS011;30157;55.512;37.764;2022-12-29T06:33:21;8.50;;;3.65;;
44197;SDS011;30157;55.512;37.764;2022-12-29T06:35:46;7.50;;;4.63;;
44197;SDS011;30157;55.512;37.764;2022-12-29T06:38:13;9.90;;;4.60;;
44197;SDS011;30157;55.512;37.764;2022-12-29T06:40:39;8.60;;;4.07;;
44197;SDS011;30157;55.512;37.764;2022-12-29T06:43:36;12.13;;;4.13;;
44197;SDS011;30157;55.512;37.764;2022-12-29T06:46:23;7.20;;;3.58;;
44197;SDS011;30157;55.512;37.764;2022-12-29T06:48:49;8.13;;;3.90;;
44197;SDS011;30157;55.512;37.764;2022-12-29T06:51:14;9.43;;;3.58;;
44197;SDS011;30157;55.512;37.764;2022-12-29T06:53:40;8.95;;;3.70;;
44197;SDS011;30157;55.512;37.764;2022-12-29T06:56:06;9.68;;;3.72;;
44197;SDS011;30157;55.512;37.764;2022-12-29T06:58:32;8.23;;;3.88;;
44197;SDS011;30157;55.512;37.764;2022-12-29T07:00:57;8.20;;;3.90;;
44197;SDS011;30157;55.512;37.764;2022-12-29T07:03:23;8.85;;;3.88;;
44197;SDS011;30157;55.512;37.764;2022-12-29T07:05:49;6.85;;;3.40;;
44197;SDS011;30157;55.512;37.764;2022-12-29T07:08:15;8.57;;;3.83;;
44197;SDS011;30157;55.512;37.764;2022-12-29T07:10:40;8.45;;;3.80;;
44197;SDS011;30157;55.512;37.764;2022-12-29T07:13:06;8.25;;;3.63;;
44197;SDS011;30157;55.512;37.764;2022-12-29T07:15:33;8.40;;;4.03;;
44197;SDS011;30157;55.512;37.764;2022-12-29T07:17:59;7.13;;;3.72;;
44197;SDS011;30157;55.512;37.764;2022-12-29T07:20:25;7.00;;;3.58;;
44197;SDS011;30157;55.512;37.764;2022-12-29T07:22:51;8.15;;;4.00;;
44197;SDS011;30157;55.512;37.764;2022-12-29T07:25:20;9.40;;;4.53;;
44197;SDS011;30157;55.512;37.764;2022-12-29T07:27:48;10.32;;;5.20;;
44197;SDS011;30157;55.512;37.764;2022-12-29T07:30:14;13.45;;;5.75;;
44197;SDS011;30157;55.512;37.764;2022-12-29T07:32:40;8.63;;;4.57;;
44197;SDS011;30157;55.512;37.764;2022-12-29T07:35:06;9.07;;;4.72;;
44197;SDS011;30157;55.512;37.764;2022-12-29T07:37:33;8.45;;;4.75;;
44197;SDS011;30157;55.512;37.764;2022-12-29T07:40:00;9.20;;;4.45;;
44197;SDS011;30157;55.512;37.764;2022-12-29T07:42:26;9.57;;;4.30;;
44197;SDS011;30157;55.512;37.764;2022-12-29T07:44:53;9.25;;;3.92;;
44197;SDS011;30157;55.512;37.764;2022-12-29T07:47:26;8.30;;;3.92;;
44197;SDS011;30157;55.512;37.764;2022-12-29T07:49:55;7.80;;;3.80;;
44197;SDS011;30157;55.512;37.764;2022-12-29T07:52:21;7.40;;;3.33;;
44197;SDS011;30157;55.512;37.764;2022-12-29T07:54:48;7.50;;;3.30;;
44197;SDS011;30157;55.512;37.764;2022-12-29T07:57:18;5.82;;;3.40;;
44197;SDS011;30157;55.512;37.764;2022-12-29T07:59:46;6.47;;;3.10;;
44197;SDS011;30157;55.512;37.764;2022-12-29T08:02:12;6.30;;;3.00;;
44197;SDS011;30157;55.512;37.764;2022-12-29T08:04:38;7.88;;;3.05;;
44197;SDS011;30157;55.512;37.764;2022-12-29T08:07:03;12.75;;;3.95;;
44197;SDS011;30157;55.512;37.764;2022-12-29T08:09:29;8.10;;;3.45;;
44197;SDS011;30157;55.512;37.764;2022-12-29T08:11:55;6.68;;;3.75;;
44197;SDS011;30157;55.512;37.764;2022-12-29T08:14:21;8.57;;;3.03;;
44197;SDS011;30157;55.512;37.764;2022-12-29T08:16:46;7.32;;;3.42;;
44197;SDS011;30157;55.512;37.764;2022-12-29T08:19:12;9.68;;;3.30;;
44197;SDS011;30157;55.512;37.764;2022-12-29T08:21:39;7.50;;;3.30;;
44197;SDS011;30157;55.512;37.764;2022-12-29T08:24:05;7.32;;;3.30;;
44197;SDS011;30157;55.512;37.764;2022-12-29T08:26:31;5.97;;;3.17;;
44197;SDS011;30157;55.512;37.764;2022-12-29T08:28:59;6.82;;;3.30;;
44197;SDS011;30157;55.512;37.764;2022-12-29T08:31:25;6.88;;;3.22;;
44197;SDS011;30157;55.512;37.764;2022-12-29T08:33:51;7.47;;;2.85;;
44197;SDS011;30157;55.512;37.764;2022-12-29T08:36:17;5.70;;;3.03;;
44197;SDS011;30157;55.512;37.764;2022-12-29T08:38:42;5.88;;;2.53;;
44197;SDS011;30157;55.512;37.764;2022-12-29T08:41:08;4.93;;;2.92;;
44197;SDS011;30157;55.512;37.764;2022-12-29T08:43:33;4.18;;;2.47;;
44197;SDS011;30157;55.512;37.764;2022-12-29T08:45:59;5.75;;;2.55;;
44197;SDS011;30157;55.512;37.764;2022-12-29T08:48:25;5.57;;;2.40;;
44197;SDS011;30157;55.512;37.764;2022-12-29T08:50:51;5.07;;;2.72;;
44197;SDS011;30157;55.512;37.764;2022-12-29T08:53:17;5.38;;;2.25;;
44197;SDS011;30157;55.512;37.764;2022-12-29T08:55:45;5.18;;;2.50;;
44197;SDS011;30157;55.512;37.764;2022-12-29T08:58:12;5.07;;;2.63;;
44197;SDS011;30157;55.512;37.764;2022-12-29T09:00:41;7.75;;;2.60;;
44197;SDS011;30157;55.512;37.764;2022-12-29T09:03:07;3.90;;;2.30;;
44197;SDS011;30157;55.512;37.764;2022-12-29T09:05:32;5.18;;;2.45;;
44197;SDS011;30157;55.512;37.764;2022-12-29T09:07:58;6.75;;;2.20;;
44197;SDS011;30157;55.512;37.764;2022-12-29T09:10:24;5.85;;;2.60;;
44197;SDS011;30157;55.512;37.764;2022-12-29T09:12:49;4.93;;;2.40;;
44197;SDS011;30157;55.512;37.764;2022-12-29T09:15:15;5.63;;;2.42;;
44197;SDS011;30157;55.512;37.764;2022-12-29T09:17:41;6.28;;;2.53;;
44197;SDS011;30157;55.512;37.764;2022-12-29T09:20:14;9.63;;;2.67;;
44197;SDS011;30157;55.512;37.764;2022-12-29T09:22:41;3.88;;;2.33;;
44197;SDS011;30157;55.512;37.764;2022-12-29T09:25:08;4.55;;;2.60;;
44197;SDS011;30157;55.512;37.764;2022-12-29T09:27:35;4.43;;;2.28;;
44197;SDS011;30157;55.512;37.764;2022-12-29T09:30:06;5.20;;;2.05;;
44197;SDS011;30157;55.512;37.764;2022-12-29T09:32:34;4.75;;;2.05;;
44197;SDS011;30157;55.512;37.764;2022-12-29T09:35:00;5.00;;;1.80;;
44197;SDS011;30157;55.512;37.764;2022-12-29T09:37:26;4.63;;;2.05;;
44197;SDS011;30157;55.512;37.764;2022-12-29T09:39:51;3.45;;;2.25;;
44197;SDS011;30157;55.512;37.764;2022-12-29T09:50:03;5.57;;;2.17;;
44197;SDS011;30157;55.512;37.764;2022-12-29T09:52:37;4.88;;;2.08;;
44197;SDS011;30157;55.512;37.764;2022-12-29T09:55:22;4.45;;;2.10;;
44197;SDS011;30157;55.512;37.764;2022-12-29T09:58:05;3.88;;;2.15;;
44197;SDS011;30157;55.512;37.764;2022-12-29T10:00:39;6.30;;;2.33;;
44197;SDS011;30157;55.512;37.764;2022-12-29T10:05:48;3.17;;;1.88;;
44197;SDS011;30157;55.512;37.764;2022-12-29T10:13:33;5.90;;;2.55;;
44197;SDS011;30157;55.512;37.764;2022-12-29T10:16:18;5.47;;;2.28;;
44197;SDS011;30157;55.512;37.764;2022-12-29T10:18:58;4.53;;;2.50;;
44197;SDS011;30157;55.512;37.764;2022-12-29T10:21:31;5.30;;;3.00;;
44197;SDS011;30157;55.512;37.764;2022-12-29T10:24:02;6.07;;;3.17;;
44197;SDS011;30157;55.512;37.764;2022-12-29T10:26:35;5.25;;;3.03;;
44197;SDS011;30157;55.512;37.764;2022-12-29T10:29:06;7.72;;;3.45;;
44197;SDS011;30157;55.512;37.764;2022-12-29T10:31:44;6.00;;;3.17;;
44197;SDS011;30157;55.512;37.764;2022-12-29T10:34:19;6.55;;;3.10;;
44197;SDS011;30157;55.512;37.764;2022-12-29T10:36:46;6.15;;;3.35;;
44197;SDS011;30157;55.512;37.764;2022-12-29T10:39:21;6.38;;;3.30;;
44197;SDS011;30157;55.512;37.764;2022-12-29T10:42:11;6.97;;;3.28;;
44197;SDS011;30157;55.512;37.764;2022-12-29T10:44:46;5.57;;;3.30;;
44197;SDS011;30157;55.512;37.764;2022-12-29T10:47:14;5.85;;;2.90;;
44197;SDS011;30157;55.512;37.764;2022-12-29T10:49:45;4.75;;;3.20;;
44197;SDS011;30157;55.512;37.764;2022-12-29T10:52:13;5.10;;;3.10;;
44197;SDS011;30157;55.512;37.764;2022-12-29T10:55:03;6.75;;;3.10;;
44197;SDS011;30157;55.512;37.764;2022-12-29T10:57:40;6.70;;;3.35;;
44197;SDS011;30157;55.512;37.764;2022-12-29T11:00:13;8.90;;;3.33;;
44197;SDS011;30157;55.512;37.764;2022-12-29T11:08:01;7.88;;;3.40;;
44197;SDS011;30157;55.512;37.764;2022-12-29T11:10:36;8.00;;;3.17;;
44197;SDS011;30157;55.512;37.764;2022-12-29T11:13:15;5.68;;;3.33;;
44197;SDS011;30157;55.512;37.764;2022-12-29T11:15:43;6.45;;;3.60;;
44197;SDS011;30157;55.512;37.764;2022-12-29T11:18:20;5.97;;;3.42;;
44197;SDS011;30157;55.512;37.764;2022-12-29T11:20:54;4.78;;;3.08;;
44197;SDS011;30157;55.512;37.764;2022-12-29T11:28:33;6.25;;;3.50;;
44197;SDS011;30157;55.512;37.764;2022-12-29T11:30:59;7.90;;;3.97;;
44197;SDS011;30157;55.512;37.764;2022-12-29T11:33:30;6.55;;;3.83;;
44197;SDS011;30157;55.512;37.764;2022-12-29T11:35:57;5.82;;;3.30;;
44197;SDS011;30157;55.512;37.764;2022-12-29T11:38:29;5.25;;;3.72;;
44197;SDS011;30157;55.512;37.764;2022-12-29T11:41:02;6.55;;;3.72;;
44197;SDS011;30157;55.512;37.764;2022-12-29T11:43:32;6.65;;;3.88;;
44197;SDS011;30157;55.512;37.764;2022-12-29T11:46:02;8.82;;;4.40;;
44197;SDS011;30157;55.512;37.764;2022-12-29T11:48:31;7.72;;;4.20;;
44197;SDS011;30157;55.512;37.764;2022-12-29T11:50:59;6.97;;;3.70;;
44197;SDS011;30157;55.512;37.764;2022-12-29T11:55:54;10.75;;;4.72;;
44197;SDS011;30157;55.512;37.764;2022-12-29T11:58:29;6.95;;;4.22;;
44197;SDS011;30157;55.512;37.764;2022-12-29T12:01:09;8.50;;;4.00;;
44197;SDS011;30157;55.512;37.764;2022-12-29T12:03:49;11.60;;;4.70;;
44197;SDS011;30157;55.512;37.764;2022-12-29T12:06:28;7.50;;;4.47;;
44197;SDS011;30157;55.512;37.764;2022-12-29T12:09:02;8.00;;;4.60;;
44197;SDS011;30157;55.512;37.764;2022-12-29T12:11:44;7.65;;;4.03;;
44197;SDS011;30157;55.512;37.764;2022-12-29T12:14:14;12.70;;;5.15;;
44197;SDS011;30157;55.512;37.764;2022-12-29T12:17:08;10.32;;;4.60;;
44197;SDS011;30157;55.512;37.764;2022-12-29T12:19:46;9.23;;;5.00;;
44197;SDS011;30157;55.512;37.764;2022-12-29T12:22:30;10.32;;;4.80;;
44197;SDS011;30157;55.512;37.764;2022-12-29T12:27:30;8.45;;;4.45;;
44197;SDS011;30157;55.512;37.764;2022-12-29T12:30:10;8.07;;;4.63;;
44197;SDS011;30157;55.512;37.764;2022-12-29T12:32:55;10.27;;;5.43;;
44197;SDS011;30157;55.512;37.764;2022-12-29T12:35:32;10.20;;;5.32;;
44197;SDS011;30157;55.512;37.764;2022-12-29T12:43:46;12.32;;;5.93;;
44197;SDS011;30157;55.512;37.764;2022-12-29T13:03:52;12.48;;;6.00;;
44197;SDS011;30157;55.512;37.764;2022-12-29T13:06:48;10.68;;;5.53;;
44197;SDS011;30157;55.512;37.764;2022-12-29T13:17:46;12.10;;;6.20;;
44197;SDS011;30157;55.512;37.764;2022-12-29T13:20:41;11.00;;;5.40;;
44197;SDS011;30157;55.512;37.764;2022-12-29T13:25:47;10.52;;;6.00;;
44197;SDS011;30157;55.512;37.764;2022-12-29T13:31:39;10.25;;;5.97;;
44197;SDS011;30157;55.512;37.764;2022-12-29T13:36:48;12.48;;;5.00;;
44197;SDS011;30157;55.512;37.764;2022-12-29T13:39:26;14.32;;;6.15;;
44197;SDS011;30157;55.512;37.764;2022-12-29T13:41:57;14.50;;;7.10;;
44197;SDS011;30157;55.512;37.764;2022-12-29T13:44:34;14.68;;;7.20;;
44197;SDS011;30157;55.512;37.764;2022-12-29T13:47:02;14.32;;;7.05;;
44197;SDS011;30157;55.512;37.764;2022-12-29T13:49:36;12.20;;;6.15;;
44197;SDS011;30157;55.512;37.764;2022-12-29T13:57:26;13.27;;;6.68;;
44197;SDS011;30157;55.512;37.764;2022-12-29T13:59:56;15.27;;;6.45;;
44197;SDS011;30157;55.512;37.764;2022-12-29T14:02:42;14.23;;;7.55;;
44197;SDS011;30157;55.512;37.764;2022-12-29T14:07:46;17.15;;;7.45;;
44197;SDS011;30157;55.512;37.764;2022-12-29T14:12:59;20.33;;;8.63;;
44197;SDS011;30157;55.512;37.764;2022-12-29T14:15:37;20.02;;;8.13;;
44197;SDS011;30157;55.512;37.764;2022-12-29T14:26:14;16.88;;;7.30;;
44197;SDS011;30157;55.512;37.764;2022-12-29T14:28:41;16.10;;;7.60;;
44197;SDS011;30157;55.512;37.764;2022-12-29T14:36:39;14.73;;;7.88;;
44197;SDS011;30157;55.512;37.764;2022-12-29T14:42:03;16.70;;;7.22;;
44197;SDS011;30157;55.512;37.764;2022-12-29T14:44:29;17.38;;;7.55;;
44197;SDS011;30157;55.512;37.764;2022-12-29T14:49:24;18.05;;;8.07;;
44197;SDS011;30157;55.512;37.764;2022-12-29T14:51:52;18.63;;;9.00;;
44197;SDS011;30157;55.512;37.764;2022-12-29T14:56:59;17.10;;;7.00;;
44197;SDS011;30157;55.512;37.764;2022-12-29T14:59:27;19.58;;;8.65;;
44197;SDS011;30157;55.512;37.764;2022-12-29T15:01:55;18.92;;;8.50;;
44197;SDS011;30157;55.512;37.764;2022-12-29T15:04:23;19.02;;;8.65;;
44197;SDS011;30157;55.512;37.764;2022-12-29T15:06:52;21.77;;;8.32;;
44197;SDS011;30157;55.512;37.764;2022-12-29T15:09:28;16.20;;;7.68;;
44197;SDS011;30157;55.512;37.764;2022-12-29T15:15:38;20.42;;;8.88;;
44197;SDS011;30157;55.512;37.764;2022-12-29T15:18:22;18.60;;;9.02;;
44197;SDS011;30157;55.512;37.764;2022-12-29T15:20:49;18.63;;;8.63;;
44197;SDS011;30157;55.512;37.764;2022-12-29T15:23:18;17.08;;;7.38;;
44197;SDS011;30157;55.512;37.764;2022-12-29T15:25:49;14.52;;;7.45;;
44197;SDS011;30157;55.512;37.764;2022-12-29T15:28:20;12.55;;;6.38;;
44197;SDS011;30157;55.512;37.764;2022-12-29T15:30:53;19.02;;;8.77;;
44197;SDS011;30157;55.512;37.764;2022-12-29T15:33:22;17.65;;;8.02;;
44197;SDS011;30157;55.512;37.764;2022-12-29T15:35:52;17.85;;;8.65;;
44197;SDS011;30157;55.512;37.764;2022-12-29T15:38:21;15.02;;;8.35;;
44197;SDS011;30157;55.512;37.764;2022-12-29T15:40:51;16.30;;;7.63;;
44197;SDS011;30157;55.512;37.764;2022-12-29T15:43:26;19.75;;;7.95;;
44197;SDS011;30157;55.512;37.764;2022-12-29T15:46:00;22.38;;;9.73;;
44197;SDS011;30157;55.512;37.764;2022-12-29T15:48:27;18.95;;;8.93;;
44197;SDS011;30157;55.512;37.764;2022-12-29T15:50:53;16.05;;;8.98;;
44197;SDS011;30157;55.512;37.764;2022-12-29T15:53:29;22.40;;;8.90;;
44197;SDS011;30157;55.512;37.764;2022-12-29T15:56:01;17.98;;;8.10;;
44197;SDS011;30157;55.512;37.764;2022-12-29T15:58:39;17.90;;;8.88;;
44197;SDS011;30157;55.512;37.764;2022-12-29T16:01:16;17.15;;;8.30;;
44197;SDS011;30157;55.512;37.764;2022-12-29T16:03:42;19.88;;;9.48;;
44197;SDS011;30157;55.512;37.764;2022-12-29T16:11:43;17.20;;;7.53;;
44197;SDS011;30157;55.512;37.764;2022-12-29T16:14:21;17.13;;;8.13;;
44197;SDS011;30157;55.512;37.764;2022-12-29T16:16:56;20.45;;;9.30;;
44197;SDS011;30157;55.512;37.764;2022-12-29T16:19:26;21.63;;;8.73;;
44197;SDS011;30157;55.512;37.764;2022-12-29T16:21:55;21.55;;;9.40;;
44197;SDS011;30157;55.512;37.764;2022-12-29T16:24:24;23.17;;;9.15;;
44197;SDS011;30157;55.512;37.764;2022-12-29T16:26:57;18.85;;;9.10;;
44197;SDS011;30157;55.512;37.764;2022-12-29T16:29:48;16.80;;;8.82;;
44197;SDS011;30157;55.512;37.764;2022-12-29T16:32:23;23.30;;;9.65;;
44197;SDS011;30157;55.512;37.764;2022-12-29T16:37:40;22.85;;;9.00;;
44197;SDS011;30157;55.512;37.764;2022-12-29T16:42:47;25.77;;;9.18;;
44197;SDS011;30157;55.512;37.764;2022-12-29T16:47:57;27.40;;;10.07;;
44197;SDS011;30157;55.512;37.764;2022-12-29T16:50:43;22.45;;;8.65;;
44197;SDS011;30157;55.512;37.764;2022-12-29T16:53:19;22.92;;;10.18;;
44197;SDS011;30157;55.512;37.764;2022-12-29T16:55:57;21.85;;;10.30;;
44197;SDS011;30157;55.512;37.764;2022-12-29T16:58:31;22.70;;;8.85;;
44197;SDS011;30157;55.512;37.764;2022-12-29T17:00:58;25.80;;;9.75;;
44197;SDS011;30157;55.512;37.764;2022-12-29T17:03:28;20.48;;;9.55;;
44197;SDS011;30157;55.512;37.764;2022-12-29T17:06:05;20.40;;;10.00;;
44197;SDS011;30157;55.512;37.764;2022-12-29T17:08:40;25.00;;;10.27;;
44197;SDS011;30157;55.512;37.764;2022-12-29T17:11:13;23.67;;;8.90;;
44197;SDS011;30157;55.512;37.764;2022-12-29T17:14:16;22.35;;;9.45;;
44197;SDS011;30157;55.512;37.764;2022-12-29T17:16:43;20.35;;;9.15;;
44197;SDS011;30157;55.512;37.764;2022-12-29T17:19:11;21.45;;;9.48;;
44197;SDS011;30157;55.512;37.764;2022-12-29T17:21:53;21.60;;;8.23;;
44197;SDS011;30157;55.512;37.764;2022-12-29T17:24:19;21.67;;;9.85;;
44197;SDS011;30157;55.512;37.764;2022-12-29T17:26:46;23.77;;;10.07;;
44197;SDS011;30157;55.512;37.764;2022-12-29T17:29:17;25.77;;;11.05;;
44197;SDS011;30157;55.512;37.764;2022-12-29T17:31:46;26.35;;;10.98;;
44197;SDS011;30157;55.512;37.764;2022-12-29T17:34:12;20.40;;;10.05;;
44197;SDS011;30157;55.512;37.764;2022-12-29T17:36:38;23.77;;;10.75;;
44197;SDS011;30157;55.512;37.764;2022-12-29T17:39:04;24.77;;;10.63;;